createdAt,value
2018-05-17T00:02:04.421Z,3.83
2018-05-17T00:05:07.107Z,3.53
2018-05-17T00:08:09.729Z,3.70
2018-05-17T00:11:13.132Z,3.90
2018-05-17T00:14:15.723Z,4.40
2018-05-17T00:17:19.061Z,3.30
2018-05-17T00:20:21.751Z,4.03
2018-05-17T00:23:24.397Z,2.83
2018-05-17T00:26:27.058Z,3.40
2018-05-17T00:29:29.644Z,2.87
2018-05-17T00:32:32.238Z,3.03
2018-05-17T00:35:35.593Z,2.83
2018-05-17T00:38:38.213Z,3.13
2018-05-17T00:41:42.380Z,3.50
2018-05-17T00:44:44.976Z,4.27
2018-05-17T00:47:47.644Z,5.20
2018-05-17T00:50:50.244Z,4.33
2018-05-17T00:53:52.987Z,3.30
2018-05-17T00:56:55.646Z,3.80
2018-05-17T00:59:58.171Z,3.80
2018-05-17T01:03:00.766Z,4.13
2018-05-17T01:06:03.378Z,3.70
2018-05-17T01:09:06.070Z,3.67
2018-05-17T01:12:09.697Z,4.07
2018-05-17T01:15:12.327Z,3.57
2018-05-17T01:18:15.025Z,4.20
2018-05-17T01:21:19.129Z,3.63
2018-05-17T01:24:21.738Z,4.13
2018-05-17T01:27:24.332Z,4.50
2018-05-17T01:30:26.937Z,3.20
2018-05-17T01:33:29.586Z,3.47
2018-05-17T01:36:32.202Z,3.60
2018-05-17T01:39:34.788Z,3.70
2018-05-17T01:42:37.461Z,3.40
2018-05-17T01:45:40.080Z,3.30
2018-05-17T01:48:42.683Z,4.07
2018-05-17T01:51:45.291Z,3.63
2018-05-17T01:54:48.647Z,3.83
2018-05-17T01:57:51.242Z,3.33
2018-05-17T02:00:53.991Z,4.37
2018-05-17T02:03:56.888Z,3.67
2018-05-17T02:06:59.649Z,5.07
2018-05-17T02:10:02.289Z,4.90
2018-05-17T02:13:05.645Z,4.33
2018-05-17T02:16:08.254Z,4.10
2018-05-17T02:19:11.049Z,4.80
2018-05-17T02:22:13.637Z,3.80
2018-05-17T02:25:16.235Z,3.43
2018-05-17T02:28:18.820Z,4.20
2018-05-17T02:31:21.432Z,3.50
2018-05-17T02:34:24.089Z,3.03
2018-05-17T02:37:27.464Z,3.50
2018-05-17T02:40:31.766Z,3.20
2018-05-17T02:43:34.352Z,3.53
2018-05-17T02:46:36.944Z,3.60
2018-05-17T02:49:39.522Z,3.30
2018-05-17T02:52:42.105Z,2.30
2018-05-17T02:55:44.690Z,2.40
2018-05-17T02:58:47.286Z,3.00
2018-05-17T03:01:49.896Z,3.40
2018-05-17T03:04:53.298Z,2.57
2018-05-17T03:07:55.866Z,2.80
2018-05-17T03:10:59.223Z,2.97
2018-05-17T03:14:01.804Z,3.00
2018-05-17T03:17:04.366Z,2.50
2018-05-17T03:20:06.958Z,2.33
2018-05-17T03:23:09.616Z,2.50
2018-05-17T03:26:12.397Z,3.37
2018-05-17T03:29:15.008Z,3.23
2018-05-17T03:32:17.572Z,2.37
2018-05-17T03:35:20.158Z,2.80
2018-05-17T03:38:22.768Z,3.00
2018-05-17T03:41:25.407Z,2.67
2018-05-17T03:44:27.989Z,2.97
2018-05-17T03:47:30.576Z,3.13
2018-05-17T03:50:33.132Z,2.90
2018-05-17T03:53:35.730Z,3.27
2018-05-17T03:56:38.320Z,2.60
2018-05-17T03:59:40.903Z,3.30
2018-05-17T04:02:55.394Z,3.17
2018-05-17T04:06:09.818Z,2.50
2018-05-17T04:09:12.391Z,3.60
2018-05-17T04:12:14.978Z,2.90
2018-05-17T04:15:17.548Z,2.67
2018-05-17T04:18:20.129Z,3.30
2018-05-17T04:21:23.497Z,3.40
2018-05-17T04:24:26.142Z,4.20
2018-05-17T04:27:28.708Z,3.47
2018-05-17T04:30:31.296Z,4.17
2018-05-17T04:33:33.917Z,3.70
2018-05-17T04:36:36.478Z,4.00
2018-05-17T04:39:39.062Z,4.77
2018-05-17T04:42:41.619Z,5.23
2018-05-17T04:45:44.205Z,4.90
2018-05-17T04:48:46.763Z,5.13
2018-05-17T04:51:50.151Z,6.10
2018-05-17T04:54:52.735Z,4.50
2018-05-17T04:57:56.143Z,4.43
2018-05-17T05:00:58.758Z,4.27
2018-05-17T05:04:01.359Z,3.57
2018-05-17T05:07:04.039Z,4.03
2018-05-17T05:10:06.650Z,3.90
2018-05-17T05:13:09.219Z,4.50
2018-05-17T05:16:11.845Z,4.60
2018-05-17T05:19:14.544Z,3.90
2018-05-17T05:22:17.226Z,3.93
2018-05-17T05:25:19.837Z,4.20
2018-05-17T05:28:22.455Z,5.10
2018-05-17T05:31:25.026Z,4.10
2018-05-17T05:34:27.660Z,4.00
2018-05-17T05:37:30.327Z,4.27
2018-05-17T05:40:32.914Z,4.43
2018-05-17T05:43:35.513Z,4.10
2018-05-17T05:46:38.113Z,5.00
2018-05-17T05:49:41.402Z,3.97
2018-05-17T05:52:44.009Z,5.87
2018-05-17T05:55:46.638Z,4.70
2018-05-17T05:58:49.255Z,3.17
2018-05-17T06:01:51.912Z,3.47
2018-05-17T06:04:54.585Z,3.63
2018-05-17T06:07:57.468Z,3.30
2018-05-17T06:11:00.433Z,3.20
2018-05-17T06:14:03.036Z,3.80
2018-05-17T06:17:05.723Z,3.50
2018-05-17T06:20:08.345Z,2.73
2018-05-17T06:23:11.110Z,3.20
2018-05-17T06:26:13.708Z,3.37
2018-05-17T06:29:16.327Z,3.30
2018-05-17T06:32:18.893Z,3.20
2018-05-17T06:35:21.502Z,3.37
2018-05-17T06:38:24.848Z,3.67
2018-05-17T06:41:27.507Z,5.30
2018-05-17T06:44:30.975Z,4.13
2018-05-17T06:47:33.606Z,2.70
2018-05-17T06:50:36.233Z,3.40
2018-05-17T06:53:39.585Z,2.43
2018-05-17T06:56:42.166Z,3.00
2018-05-17T06:59:44.830Z,3.07
2018-05-17T07:02:48.271Z,3.10
2018-05-17T07:05:50.912Z,3.40
2018-05-17T07:08:53.519Z,8.97
2018-05-17T07:11:56.112Z,3.00
2018-05-17T07:14:58.728Z,5.63
2018-05-17T07:18:01.430Z,2.57
2018-05-17T07:21:03.957Z,3.20
2018-05-17T07:24:06.598Z,5.37
2018-05-17T07:27:09.187Z,3.90
2018-05-17T07:30:12.608Z,2.57
2018-05-17T07:33:15.326Z,3.30
2018-05-17T07:36:17.947Z,3.20
2018-05-17T07:39:20.562Z,1.63
2018-05-17T07:42:23.147Z,1.53
2018-05-17T07:45:25.731Z,1.23
2018-05-17T07:48:28.474Z,2.20
2018-05-17T07:51:31.289Z,2.77
2018-05-17T07:54:34.078Z,1.40
2018-05-17T07:57:36.678Z,1.70
2018-05-17T08:00:39.265Z,1.60
2018-05-17T08:03:41.858Z,1.60
2018-05-17T08:06:44.597Z,1.35
2018-05-17T08:09:47.407Z,1.90
2018-05-17T08:12:50.021Z,1.47
2018-05-17T08:15:52.640Z,2.95
2018-05-17T08:18:55.336Z,1.70
2018-05-17T08:21:57.925Z,1.60
2018-05-17T08:25:00.516Z,1.63
2018-05-17T08:28:03.103Z,1.30
2018-05-17T08:31:05.843Z,1.70
2018-05-17T08:34:08.534Z,1.57
2018-05-17T08:37:11.142Z,2.00
2018-05-17T08:40:13.727Z,1.70
2018-05-17T08:43:16.340Z,1.40
2018-05-17T08:46:18.959Z,1.80
2018-05-17T08:49:22.354Z,1.70
2018-05-17T08:52:24.952Z,1.50
2018-05-17T08:55:28.372Z,1.63
2018-05-17T08:58:30.987Z,1.60
2018-05-17T09:01:33.647Z,2.10
2018-05-17T09:04:36.252Z,1.40
2018-05-17T09:07:38.941Z,1.60
2018-05-17T09:10:41.515Z,1.90
2018-05-17T09:13:44.431Z,1.63
2018-05-17T09:16:47.159Z,1.70
2018-05-17T09:19:49.779Z,1.67
2018-05-17T09:22:52.390Z,1.80
2018-05-17T09:25:55.025Z,1.73
2018-05-17T09:28:57.605Z,1.60
2018-05-17T09:32:00.267Z,1.80
2018-05-17T09:35:02.918Z,1.90
2018-05-17T09:38:05.555Z,1.90
2018-05-17T09:41:08.426Z,2.23
2018-05-17T09:44:10.995Z,1.70
2018-05-17T09:47:14.567Z,1.53
2018-05-17T09:50:18.079Z,1.90
2018-05-17T09:53:20.799Z,1.63
2018-05-17T09:56:23.371Z,1.90
2018-05-17T09:59:25.966Z,1.53
2018-05-17T10:02:28.644Z,1.73
2018-05-17T10:05:31.242Z,1.50
2018-05-17T10:08:34.104Z,1.90
2018-05-17T10:11:36.689Z,1.53
2018-05-17T10:14:39.370Z,1.70
2018-05-17T10:17:42.065Z,1.80
2018-05-17T10:20:45.271Z,1.80
2018-05-17T10:23:47.913Z,1.33
2018-05-17T10:26:51.264Z,1.80
2018-05-17T10:29:53.893Z,2.00
2018-05-17T10:32:56.731Z,1.57
2018-05-17T10:35:59.368Z,1.47
2018-05-17T10:39:02.066Z,1.93
2018-05-17T10:42:04.680Z,1.97
2018-05-17T10:45:07.318Z,1.60
2018-05-17T10:48:09.929Z,2.10
2018-05-17T10:51:12.491Z,2.03
2018-05-17T10:54:16.003Z,2.37
2018-05-17T10:57:19.186Z,1.67
2018-05-17T11:00:22.607Z,2.00
2018-05-17T11:03:25.180Z,1.63
2018-05-17T11:06:27.761Z,2.33
2018-05-17T11:09:31.184Z,2.33
2018-05-17T11:12:33.794Z,1.87
2018-05-17T11:15:36.414Z,2.03
2018-05-17T11:18:39.973Z,1.60
2018-05-17T11:21:42.560Z,1.60
2018-05-17T11:24:45.167Z,2.27
2018-05-17T11:27:47.779Z,2.20
2018-05-17T11:30:50.387Z,2.30
2018-05-17T11:33:53.264Z,2.10
2018-05-17T11:36:55.863Z,2.70
2018-05-17T11:39:59.037Z,2.50
2018-05-17T11:43:01.825Z,1.80
2018-05-17T11:46:05.463Z,1.97
2018-05-17T11:49:08.143Z,2.03
2018-05-17T11:52:13.153Z,2.00
2018-05-17T11:55:15.806Z,2.43
2018-05-17T11:58:19.396Z,2.10
2018-05-17T12:01:22.132Z,2.73
2018-05-17T12:04:24.891Z,2.50
2018-05-17T12:07:27.548Z,2.47
2018-05-17T12:10:30.330Z,2.43
2018-05-17T12:13:33.045Z,1.80
2018-05-17T12:16:36.552Z,1.83
2018-05-17T12:19:40.000Z,2.10
2018-05-17T12:22:43.371Z,2.50
2018-05-17T12:25:45.992Z,2.33
2018-05-17T12:28:48.726Z,2.40
2018-05-17T12:31:52.522Z,3.63
2018-05-17T12:34:55.233Z,2.83
2018-05-17T12:37:57.813Z,1.93
2018-05-17T12:41:00.410Z,2.63
2018-05-17T12:44:02.991Z,6.07
2018-05-17T12:47:05.658Z,3.47
2018-05-17T12:50:08.255Z,2.80
2018-05-17T12:53:13.688Z,2.77
2018-05-17T12:56:16.607Z,2.83
2018-05-17T12:59:19.248Z,2.20
2018-05-17T13:02:22.608Z,2.50
2018-05-17T13:05:25.435Z,3.23
2018-05-17T13:08:28.838Z,2.23
2018-05-17T13:11:32.194Z,2.50
2018-05-17T13:14:35.548Z,2.50
2018-05-17T13:17:38.149Z,2.73
2018-05-17T13:20:40.837Z,2.50
2018-05-17T13:23:43.433Z,1.97
2018-05-17T13:26:46.028Z,2.30
2018-05-17T13:29:48.650Z,2.00
2018-05-17T13:32:51.554Z,1.83
2018-05-17T13:35:54.215Z,2.77
2018-05-17T13:38:56.868Z,2.97
2018-05-17T13:41:59.502Z,2.40
2018-05-17T13:45:02.178Z,2.90
2018-05-17T13:48:04.821Z,2.43
2018-05-17T13:51:07.414Z,2.03
2018-05-17T13:54:10.033Z,2.43
2018-05-17T13:57:12.823Z,2.30
2018-05-17T14:00:15.467Z,2.30
2018-05-17T14:03:18.313Z,2.30
2018-05-17T14:06:20.909Z,2.73
2018-05-17T14:09:23.488Z,2.77
2018-05-17T14:12:26.047Z,2.90
2018-05-17T14:15:28.661Z,2.23
2018-05-17T14:18:31.285Z,2.00
2018-05-17T14:21:34.642Z,2.77
2018-05-17T14:24:37.267Z,2.43
2018-05-17T14:27:40.627Z,1.93
2018-05-17T14:30:43.368Z,2.63
2018-05-17T14:33:45.962Z,2.60
2018-05-17T14:36:48.541Z,2.77
2018-05-17T14:39:51.146Z,2.40
2018-05-17T14:42:53.770Z,1.80
2018-05-17T14:45:56.378Z,2.30
2018-05-17T14:48:59.161Z,2.70
2018-05-17T14:52:01.899Z,2.40
2018-05-17T14:55:04.510Z,1.90
2018-05-17T14:58:22.583Z,2.40
2018-05-17T15:01:25.231Z,2.60
2018-05-17T15:04:27.816Z,2.53
2018-05-17T15:07:30.448Z,2.27
2018-05-17T15:10:33.054Z,2.70
2018-05-17T15:13:35.646Z,2.80
2018-05-17T15:16:38.218Z,2.53
2018-05-17T15:19:40.802Z,2.53
2018-05-17T15:22:43.451Z,2.37
2018-05-17T15:25:46.223Z,2.70
2018-05-17T15:28:48.831Z,2.13
2018-05-17T15:31:51.409Z,2.13
2018-05-17T15:34:54.766Z,2.33
2018-05-17T15:37:57.709Z,2.70
2018-05-17T15:41:00.464Z,2.20
2018-05-17T15:44:03.065Z,2.23
2018-05-17T15:47:05.633Z,2.23
2018-05-17T15:50:08.232Z,2.80
2018-05-17T15:53:10.787Z,2.77
2018-05-17T15:56:13.562Z,3.20
2018-05-17T15:59:17.055Z,2.50
2018-05-17T16:02:21.317Z,1.70
2018-05-17T16:05:23.909Z,2.00
2018-05-17T16:08:26.608Z,1.87
2018-05-17T16:11:29.174Z,1.90
2018-05-17T16:14:31.842Z,1.73
2018-05-17T16:17:34.717Z,1.80
2018-05-17T16:20:37.319Z,1.93
2018-05-17T16:23:40.550Z,2.07
2018-05-17T16:26:43.174Z,2.70
2018-05-17T16:29:45.825Z,1.90
2018-05-17T16:32:49.389Z,2.30
2018-05-17T16:35:52.051Z,1.83
2018-05-17T16:38:54.822Z,2.23
2018-05-17T16:41:58.195Z,1.90
2018-05-17T16:45:00.774Z,1.97
2018-05-17T16:48:03.424Z,2.00
2018-05-17T16:51:06.409Z,1.90
2018-05-17T16:54:09.188Z,2.30
2018-05-17T16:57:11.720Z,2.40
2018-05-17T17:00:14.440Z,1.63
2018-05-17T17:03:17.249Z,1.93
2018-05-17T17:06:19.854Z,2.30
2018-05-17T17:09:22.451Z,1.60
2018-05-17T17:12:25.040Z,2.50
2018-05-17T17:15:27.630Z,1.60
2018-05-17T17:18:30.234Z,2.10
2018-05-17T17:21:33.024Z,2.60
2018-05-17T17:24:35.620Z,2.83
2018-05-17T17:27:38.193Z,3.20
2018-05-17T17:30:40.897Z,3.27
2018-05-17T17:33:43.471Z,3.33
2018-05-17T17:36:46.101Z,3.53
2018-05-17T17:39:48.707Z,3.30
2018-05-17T17:42:52.087Z,3.30
2018-05-17T17:45:54.679Z,3.47
2018-05-17T17:48:58.082Z,3.67
2018-05-17T17:52:00.700Z,3.20
2018-05-17T17:55:03.371Z,3.17
2018-05-17T17:58:05.978Z,4.50
2018-05-17T18:01:08.573Z,4.10
2018-05-17T18:04:11.211Z,3.13
2018-05-17T18:07:13.829Z,3.80
2018-05-17T18:10:16.462Z,4.17
2018-05-17T18:13:19.144Z,3.43
2018-05-17T18:16:22.534Z,3.60
2018-05-17T18:19:25.163Z,3.83
2018-05-17T18:22:27.820Z,3.90
2018-05-17T18:25:30.571Z,3.70
2018-05-17T18:28:33.233Z,3.30
2018-05-17T18:31:35.980Z,4.87
2018-05-17T18:34:39.867Z,3.70
2018-05-17T18:37:42.567Z,4.10
2018-05-17T18:40:45.444Z,3.40
2018-05-17T18:43:48.152Z,3.53
2018-05-17T18:46:50.889Z,4.00
2018-05-17T18:49:53.513Z,3.50
2018-05-17T18:52:56.353Z,3.17
2018-05-17T18:55:58.978Z,3.80
2018-05-17T18:59:01.607Z,3.20
2018-05-17T19:02:04.301Z,3.80
2018-05-17T19:05:06.943Z,2.90
2018-05-17T19:08:11.384Z,4.03
2018-05-17T19:11:14.085Z,3.67
2018-05-17T19:14:16.954Z,3.63
2018-05-17T19:17:21.339Z,3.90
2018-05-17T19:20:24.677Z,4.20
2018-05-17T19:23:29.912Z,3.53
2018-05-17T19:26:32.564Z,3.60
2018-05-17T19:29:35.913Z,3.73
2018-05-17T19:32:38.650Z,3.90
2018-05-17T19:35:41.563Z,3.83
2018-05-17T19:38:44.624Z,4.57
2018-05-17T19:41:47.424Z,4.03
2018-05-17T19:44:50.131Z,3.67
2018-05-17T19:47:52.816Z,4.20
2018-05-17T19:50:56.724Z,4.80
2018-05-17T19:53:59.397Z,4.40
2018-05-17T19:57:02.805Z,4.17
2018-05-17T20:00:05.913Z,4.53
2018-05-17T20:03:08.517Z,4.80
2018-05-17T20:06:11.171Z,4.53
2018-05-17T20:09:14.440Z,4.50
2018-05-17T20:12:17.769Z,4.40
2018-05-17T20:15:20.969Z,3.80
2018-05-17T20:18:23.551Z,4.37
2018-05-17T20:21:27.052Z,4.43
2018-05-17T20:24:30.561Z,4.57
2018-05-17T20:27:33.302Z,4.10
2018-05-17T20:30:36.034Z,5.20
2018-05-17T20:33:38.762Z,4.37
2018-05-17T20:36:41.422Z,5.70
2018-05-17T20:39:45.757Z,4.77
2018-05-17T20:42:48.340Z,4.90
2018-05-17T20:45:51.060Z,4.63
2018-05-17T20:48:53.694Z,4.87
2018-05-17T20:51:56.977Z,5.10
2018-05-17T20:54:59.644Z,4.67
2018-05-17T20:58:02.335Z,4.33
2018-05-17T21:01:05.216Z,4.80
2018-05-17T21:04:09.119Z,4.63
2018-05-17T21:07:11.941Z,4.40
2018-05-17T21:10:14.684Z,5.10
2018-05-17T21:13:18.194Z,4.67
2018-05-17T21:16:21.113Z,4.30
2018-05-17T21:19:25.153Z,4.53
2018-05-17T21:22:27.790Z,4.97
2018-05-17T21:25:31.259Z,4.47
2018-05-17T21:28:33.991Z,4.77
2018-05-17T21:31:36.662Z,4.73
2018-05-17T21:34:39.280Z,4.87
2018-05-17T21:37:41.918Z,4.90
2018-05-17T21:40:45.551Z,4.27
2018-05-17T21:43:48.156Z,5.07
2018-05-17T21:46:50.877Z,5.00
2018-05-17T21:49:54.343Z,5.17
2018-05-17T21:52:57.115Z,4.40
2018-05-17T21:55:59.734Z,4.60
2018-05-17T21:59:02.880Z,5.17
2018-05-17T22:02:05.593Z,4.93
2018-05-17T22:05:08.378Z,4.77
2018-05-17T22:08:11.171Z,4.60
2018-05-17T22:11:13.841Z,4.87
2018-05-17T22:14:16.621Z,4.63
2018-05-17T22:17:19.417Z,4.63
2018-05-17T22:20:22.132Z,4.50
2018-05-17T22:23:24.787Z,4.93
2018-05-17T22:26:27.358Z,5.20
2018-05-17T22:29:30.035Z,4.53
2018-05-17T22:32:32.726Z,4.60
2018-05-17T22:35:35.931Z,4.80
2018-05-17T22:38:38.977Z,5.33
2018-05-17T22:41:41.708Z,4.50
2018-05-17T22:44:44.377Z,3.90
2018-05-17T22:47:47.259Z,4.10
2018-05-17T22:50:50.027Z,4.73
2018-05-17T22:53:53.446Z,5.10
2018-05-17T22:57:07.850Z,4.30
2018-05-17T23:00:16.177Z,4.50
2018-05-17T23:03:19.314Z,4.20
2018-05-17T23:06:21.951Z,4.90
2018-05-17T23:09:24.559Z,5.17
2018-05-17T23:12:27.895Z,4.00
2018-05-17T23:15:30.479Z,4.30
2018-05-17T23:18:33.121Z,4.33
2018-05-17T23:21:35.824Z,4.23
2018-05-17T23:24:38.488Z,4.67
2018-05-17T23:27:41.404Z,4.40
2018-05-17T23:30:44.112Z,4.10
2018-05-17T23:33:46.975Z,4.60
2018-05-17T23:36:49.579Z,4.77
2018-05-17T23:39:52.223Z,3.80
2018-05-17T23:42:55.679Z,4.00
2018-05-17T23:45:58.272Z,4.33
2018-05-17T23:49:01.101Z,4.53
2018-05-17T23:52:05.174Z,4.43
2018-05-17T23:55:07.780Z,4.10
2018-05-17T23:58:10.373Z,4.10
